Welcome to my new website - This page is under development

Bauang Weathercam more information Bauang Weathercam


Thunder radar more information blitzortung!


Rain radar more information rain snow radar


Visit other webcamsites:

Live CameraLivecam

EarthCamLivecam

YoutubeYoutube live stream



Nearby METAR Reports

   
RPLC - Angeles/Pampanga, Philippines
Distance from station: S 165 km
Updated: 23-11-2019 07:00
Mostly Cloudy  
Mostly Cloudy  
   Wind: NNW 1 m/s
Wind: NNW 1 m/s
Temperature: 25°C
Dew Point: 23°C
Humidity: 89%
Barometer: 1013 hPa
Clouds: Mostly Cloudy
Visibility: 6 km
Cloud details: Partly Cloudy 609.6 m,
Mostly Cloudy 2743.2 m
RPLC 222300Z 34002KT 6000 SCT020 BKN090 25/23 Q1013 RERA RMK A2991
RPLI - Laoag Intl(Ph-Ar, Philippines
Distance from station: N 172 km
Updated: 23-11-2019 07:00
Haze, Few Clouds  
Haze, Few Clouds  
   Wind: East 1.5 m/s
Wind: East 1.5 m/s
Temperature: 23°C
Dew Point: 23°C
Humidity: 100%
Barometer: 1013 hPa
Clouds: Few Clouds
Visibility: 5 km
Cloud details: Few Clouds 548.6 m
RPLI 222300Z 10003KT 5000 HZ FEW018 23/23 Q1013 NOSIG RMK A2991
RPLB - Olongapo/Subic, Philippines
Distance from station: S 203 km
Updated: 23-11-2019 07:00
Mostly Cloudy  
Mostly Cloudy  
   Wind: NNE 1.5 m/s
Wind: NNE 1.5 m/s
Temperature: 26°C
Dew Point: 23°C
Humidity: 84%
Barometer: 1013 hPa
Clouds: Mostly Cloudy
Visibility: More than 10 km
Cloud details: Partly Cloudy 609.6 m,
Mostly Cloudy 2438.4 m
RPLB 222300Z 03003KT 9999 SCT020 BKN080 26/23 Q1013 NOSIG RMK A2991
RPLL - Ninoy Aquino Int, Philippines
Distance from station: SSE 246 km
Updated: 23-11-2019 07:00
Mostly Cloudy  
Mostly Cloudy  
   Wind: Calm
Wind: Calm
Temperature: 27°C
Heat Index: 30°C
Dew Point: 24°C
Humidity: 84%
Barometer: 1012 hPa
Clouds: Mostly Cloudy
Visibility: More than 10 km
Cloud details: Partly Cloudy 701 m,
Mostly Cloudy 3048 m
RPLL 222300Z 00000KT 9999 SCT023 BKN100 27/24 Q1012 NOSIG RMK A2988
RPMR - Romblon/Tablas I, Philippines
Distance from station: SSE 498 km
Updated: 22-11-2019 17:00
NOT Current
Nearby Showers, Mostly Cloudy  
Nearby Showers, Mostly Cloudy  
   Wind: South 1 m/s
Wind: South 1 m/s
Temperature: 31°C
Heat Index: 36°C
Dew Point: 23°C
Humidity: 62%
Barometer: 1010 hPa
Clouds: Mostly Cloudy
Visibility: More than 10 km
Cloud details: Few Clouds 548.6 m,
Mostly Cloudy 2438.4 m
RPMR 220900Z 18002KT 9999 VCSH FEW018CB BKN080 31/23 Q1010 NOSIG RMK A2983 CB W NW VCSH W
RPVP - Puerto Princesa, Philippines
Distance from station: SSW 778 km
Updated: 23-11-2019 07:00
Mostly Cloudy  
Mostly Cloudy  
   Wind: West 2.1 m/s
Wind: West 2.1 m/s
Temperature: 26°C
Dew Point: 23°C
Humidity: 84%
Barometer: 1011 hPa
Clouds: Mostly Cloudy
Visibility: More than 10 km
Cloud details: Few Clouds 579.1 m,
Mostly Cloudy 2438.4 m
RPVP 222300Z 27004KT 9999 FEW019 BKN080 26/23 Q1011 RMK A2985
RPVM - Mactan-Cebu, Philippines
Distance from station: SSE 800 km
Updated: 23-11-2019 07:00
Few Clouds  
Few Clouds  
   Wind: NNW 2.1 m/s
Wind: NNW 2.1 m/s
Temperature: 28°C
Heat Index: 32°C
Dew Point: 24°C
Humidity: 79%
Barometer: 1012 hPa
Clouds: Few Clouds
Visibility: More than 10 km
Cloud details: Few Clouds 609.6 m
RPVM 222300Z 33004KT 9999 FEW020 28/24 Q1012 RMK A2988
RPMZ - Zamboanga (civ/A, Philippines
Distance from station: S 1090 km
Updated: 23-11-2019 07:00
Overcast  
Overcast  
   Wind: varies 1 m/s
Wind: varies 1 m/s
Temperature: 26°C
Dew Point: 24°C
Humidity: 89%
Barometer: 1011 hPa
Clouds: Overcast
Visibility: More than 10 km
Cloud details: Partly Cloudy 487.7 m,
Few Clouds 518.2 m,
Overcast 2743.2 m
RPMZ 222300Z VRB02KT 9999 SCT016CB FEW017 OVC090 26/24 Q1011 RMK A2985 CB NW-NE/E-S
RPMD - Davao/Francisco, Philippines
Distance from station: SSE 1198 km
Updated: 23-11-2019 07:00
Partly Cloudy  
Partly Cloudy  
   Wind: North 1.5 m/s
Wind: North 1.5 m/s
Temperature: 26°C
Dew Point: 25°C
Humidity: 94%
Barometer: 1011 hPa
Clouds: Partly Cloudy
Visibility: More than 10 km
Cloud details: Few Clouds 487.7 m,
Partly Cloudy 8839.2 m
RPMD 222300Z 35003KT 290V020 9999 FEW016 SCT290 26/25 Q1011 RMK A2985

Script developed by  Saratoga-weather.org Adapted for the template by  Weerstation Leuven

You find our weather info also at:

WeatherCloud

Weather Underground

Austria Weather Network

HAMweather, WeatherForYou, PWS Weather

Philippine Atmospheric, Geophysical and Astronomical Services Administration